Time;durP1;ratioP1;P1;durP2;ratioP2;P2;SDS_P1;SDS_P2;PMS_P1;PMS_P2;Temp;Humidity;BMP_temperature;BMP_pressure;BME280_temperature;BME280_humidity;BME280_pressure;Samples;Min_cycle;Max_cycle;Signal;HPM_P1;HPM_P2
2022/04/26 06:57:13;;;;;;;;;;;;;;;;;;1894415;28;7266;-68
2022/04/26 06:58:11;;;;;;;;;;;;;;;;;;1897609;28;7109;-68
2022/04/26 06:59:08;;;;;;;;;;;;;;;;;;1897056;28;8032;-67
2022/04/26 07:00:07;;;;;;;;;;;;;;;;;;1888770;28;7096;-70
2022/04/26 07:01:04;;;;;;;;;;;;;;;;;;1888844;28;7006;-66
2022/04/26 07:02:22;;;;;;;;;;;;;;;;;;1897532;28;7126;-65
2022/04/26 07:03:19;;;;;;;;;;;;;;;;;;1897344;28;7043;-70
2022/04/26 07:04:18;;;;;;;;;;;;;;;;;;1897237;28;8112;-70
2022/04/26 07:05:15;;;;;;;;;;;;;;;;;;1895860;28;7022;-71
2022/04/26 07:06:13;;;;;;;;;;;;;;;;;;1896512;28;7614;-69
2022/04/26 07:07:10;;;;;;;;;;;;;;;;;;1896981;28;7006;-66
2022/04/26 07:08:08;;;;;;;;;;;;;;;;;;1889847;28;9011;-67
2022/04/26 07:09:08;;;;;;;;;;;;;;;;;;1889307;28;7116;-69
2022/04/26 07:10:07;;;;;;;;;;;;;;;;;;1896297;28;7037;-70
2022/04/26 07:11:04;;;;;;;;;;;;;;;;;;1897280;28;7120;-69
2022/04/26 07:12:02;;;;;;;;;;;;;;;;;;1897577;28;7005;-70
2022/04/26 07:12:59;;;;;;;;;;;;;;;;;;1896144;28;7150;-71
2022/04/26 07:13:57;;;;;;;;;;;;;;;;;;1897710;28;7142;-68
2022/04/26 07:14:54;;;;;;;;;;;;;;;;;;1898551;28;7002;-71
2022/04/26 07:15:52;;;;;;;;;;;;;;;;;;1897409;28;7038;-71
2022/04/26 07:16:50;;;;;;;;;;;;;;;;;;1897024;28;7092;-71
2022/04/26 07:17:47;;;;;;;;;;;;;;;;;;1897334;28;7117;-72
2022/04/26 07:18:46;;;;;;;;;;;;;;;;;;1897459;28;7127;-69
2022/04/26 07:19:46;;;;;;;;;;;;;;;;;;1897098;28;7006;-68
2022/04/26 07:20:56;;;;;;;;;;;;;;;;;;1896181;28;7392;-70
2022/04/26 07:21:54;;;;;;;;;;;;;;;;;;1896887;28;7054;-69
2022/04/26 07:23:00;;;;;;;;;;;;;;;;;;1897312;28;7001;-70
2022/04/26 07:23:58;;;;;;;;;;;;;;;;;;1897099;28;7025;-71
2022/04/26 07:24:56;;;;;;;;;;;;;;;;;;1897542;28;7093;-72
2022/04/26 07:25:55;;;;;;;;;;;;;;;;;;1897123;28;7084;-71
2022/04/26 07:26:54;;;;;;;;;;;;;;;;;;1897120;28;7093;-70
2022/04/26 07:27:51;;;;;;;;;;;;;;;;;;1897472;28;7046;-71
2022/04/26 07:28:49;;;;;;;;;;;;;;;;;;1897571;28;7006;-69
2022/04/26 07:29:50;;;;;;;;;;;;;;;;;;1895802;28;7013;-68
2022/04/26 07:30:47;;;;;;;;;;;;;;;;;;1897062;28;7029;-70
2022/04/26 07:31:45;;;;;;;;;;;;;;;;;;1896287;28;7046;-72
2022/04/26 07:35:15;;;;;;;;;;;;;;;;;;1897051;28;7006;-72
2022/04/26 07:36:12;;;;;;;;;;;;;;;;;;1897415;28;7085;-68
2022/04/26 07:37:10;;;;;;;;;;;;;;;;;;1897021;28;7010;-72
2022/04/26 07:38:07;;;;;;;;;;;;;;;;;;1896897;28;7037;-72
2022/04/26 07:39:05;;;;;;;;;;;;;;;;;;1897284;28;7039;-70
2022/04/26 07:40:03;;;;;;;;;;;;;;;;;;1896903;28;7324;-70
2022/04/26 07:41:00;;;;;;;;;;;;;;;;;;1896843;28;7320;-67
2022/04/26 07:41:58;;;;;;;;;;;;;;;;;;1896969;28;7035;-69
2022/04/26 07:42:56;;;;;;;;;;;;;;;;;;1897567;28;7089;-69
2022/04/26 07:43:55;;;;;;;;;;;;;;;;;;1897379;28;7415;-71
2022/04/26 07:44:52;;;;;;;;;;;;;;;;;;1888987;28;8036;-69
2022/04/26 07:45:49;;;;;;;;;;;;;;;;;;1889257;28;7010;-71
2022/04/26 07:46:48;;;;;;;;;;;;;;;;;;1895988;28;8039;-68
2022/04/26 07:47:46;;;;;;;;;;;;;;;;;;1897027;28;7088;-72
2022/04/26 07:48:43;;;;;;;;;;;;;;;;;;1897225;28;7006;-68
2022/04/26 07:49:41;;;;;;;;;;;;;;;;;;1897067;28;7010;-71
2022/04/26 07:50:38;;;;;;;;;;;;;;;;;;1897174;28;7096;-68
2022/04/26 07:51:36;;;;;;;;;;;;;;;;;;1897917;28;7075;-71
2022/04/26 07:52:33;;;;;;;;;;;;;;;;;;1898344;28;7042;-69
2022/04/26 07:53:31;;;;;;;;;;;;;;;;;;1898673;28;7252;-70
2022/04/26 07:54:28;;;;;;;;;;;;;;;;;;1898177;28;7006;-69
2022/04/26 07:55:26;;;;;;;;;;;;;;;;;;1898313;28;7309;-71
2022/04/26 07:56:23;;;;;;;;;;;;;;;;;;1900848;28;7312;-68
2022/04/26 07:57:21;;;;;;;;;;;;;;;;;;1906188;28;7096;-68
2022/04/26 07:58:18;;;;;;;;;;;;;;;;;;1905994;28;7089;-71
2022/04/26 07:59:15;;;;;;;;;;;;;;;;;;1905925;28;7092;-70
2022/04/26 08:00:14;;;;;;;;;;;;;;;;;;1905836;28;7092;-70
2022/04/26 08:01:12;;;;;;;;;;;;;;;;;;1905767;28;7058;-69
2022/04/26 08:02:10;;;;;;;;;;;;;;;;;;1906105;28;7010;-70
2022/04/26 08:03:16;;;;;;;;;;;;;;;;;;1905865;28;7014;-69
2022/04/26 08:04:14;;;;;;;;;;;;;;;;;;1906135;28;8091;-68
2022/04/26 08:05:14;;;;;;;;;;;;;;;;;;1906563;28;7054;-68
2022/04/26 08:06:11;;;;;;;;;;;;;;;;;;1905768;28;7026;-69
2022/04/26 08:07:09;;;;;;;;;;;;;;;;;;1905880;28;7034;-68
2022/04/26 08:08:06;;;;;;;;;;;;;;;;;;1905918;28;7185;-69
2022/04/26 08:09:04;;;;;;;;;;;;;;;;;;1905735;28;7346;-70
2022/04/26 08:10:01;;;;;;;;;;;;;;;;;;1906120;28;7001;-70
2022/04/26 08:11:00;;;;;;;;;;;;;;;;;;1905916;28;7005;-70
2022/04/26 08:11:57;;;;;;;;;;;;;;;;;;1906183;28;7128;-70
2022/04/26 08:12:55;;;;;;;;;;;;;;;;;;1906000;28;7013;-69
2022/04/26 08:13:52;;;;;;;;;;;;;;;;;;1905950;28;7033;-68
2022/04/26 08:14:49;;;;;;;;;;;;;;;;;;1905804;28;7104;-72
2022/04/26 08:15:47;;;;;;;;;;;;;;;;;;1905501;28;7042;-72
2022/04/26 08:16:44;;;;;;;;;;;;;;;;;;1905770;28;7092;-69
2022/04/26 08:17:42;;;;;;;;;;;;;;;;;;1905791;28;7017;-70
2022/04/26 08:18:39;;;;;;;;;;;;;;;;;;1905634;28;7117;-69
2022/04/26 08:19:37;;;;;;;;;;;;;;;;;;1905977;28;7038;-69
2022/04/26 08:20:34;;;;;;;;;;;;;;;;;;1906361;28;7195;-69
2022/04/26 08:21:31;;;;;;;;;;;;;;;;;;1904344;28;8040;-69
2022/04/26 08:22:29;;;;;;;;;;;;;;;;;;1904364;28;7153;-71
2022/04/26 08:23:27;;;;;;;;;;;;;;;;;;1905406;28;7017;-68
2022/04/26 08:28:12;;;;;;;;;;;;;;;;;;1904907;28;7110;-70
2022/04/26 08:29:12;;;;;;;;;;;;;;;;;;1905930;28;7101;-68
2022/04/26 08:30:10;;;;;;;;;;;;;;;;;;1905895;28;7005;-71
2022/04/26 08:31:14;;;;;;;;;;;;;;;;;;1905765;28;7096;-69
2022/04/26 08:32:13;;;;;;;;;;;;;;;;;;1905463;28;7380;-70
2022/04/26 08:33:10;;;;;;;;;;;;;;;;;;1905262;28;7006;-68
2022/04/26 08:34:08;;;;;;;;;;;;;;;;;;1904750;28;7022;-71
2022/04/26 08:35:06;;;;;;;;;;;;;;;;;;1905800;28;7009;-72
2022/04/26 08:36:04;;;;;;;;;;;;;;;;;;1905549;28;7133;-69
2022/04/26 08:37:02;;;;;;;;;;;;;;;;;;1905361;28;7009;-69
2022/04/26 08:37:59;;;;;;;;;;;;;;;;;;1905939;28;7113;-71
2022/04/26 08:38:57;;;;;;;;;;;;;;;;;;1905825;28;7113;-70
2022/04/26 08:39:55;;;;;;;;;;;;;;;;;;1913233;28;7009;-71
2022/04/26 08:40:53;;;;;;;;;;;;;;;;;;1911913;28;7362;-70
2022/04/26 08:41:55;;;;;;;;;;;;;;;;;;1897506;28;7268;-72
2022/04/26 08:42:53;;;;;;;;;;;;;;;;;;1897534;28;7093;-69
2022/04/26 08:43:50;;;;;;;;;;;;;;;;;;1905619;28;8032;-69
2022/04/26 08:44:48;;;;;;;;;;;;;;;;;;1905372;28;7009;-69
2022/04/26 08:45:46;;;;;;;;;;;;;;;;;;1905984;28;7985;-71
2022/04/26 08:51:49;;;;;;;;;;;;;;;;;;1905477;28;7113;-68
2022/04/26 08:52:50;;;;;;;;;;;;;;;;;;1905750;28;7373;-71
2022/04/26 08:53:48;;;;;;;;;;;;;;;;;;1905788;28;7025;-69
2022/04/26 08:54:45;;;;;;;;;;;;;;;;;;1905751;28;7029;-68
2022/04/26 08:55:47;;;;;;;;;;;;;;;;;;1905556;28;8010;-70
2022/04/26 08:56:44;;;;;;;;;;;;;;;;;;1905357;28;7152;-69
2022/04/26 08:57:41;;;;;;;;;;;;;;;;;;1906179;28;7038;-70
2022/04/26 08:58:40;;;;;;;;;;;;;;;;;;1906128;28;8059;-69
2022/04/26 08:59:45;;;;;;;;;;;;;;;;;;1905480;28;7046;-69
2022/04/26 09:01:03;;;;;;;;;;;;;;;;;;1905742;28;7135;-68
2022/04/26 09:02:26;;;;;;;;;;;;;;;;;;1905346;28;7112;-71
2022/04/26 09:03:24;;;;;;;;;;;;;;;;;;1901683;28;7021;-69
2022/04/26 09:04:21;;;;;;;;;;;;;;;;;;1898517;28;7006;-66
2022/04/26 09:05:19;;;;;;;;;;;;;;;;;;1889868;28;7014;-70
2022/04/26 09:06:17;;;;;;;;;;;;;;;;;;1897701;28;7009;-69
2022/04/26 09:07:29;;;;;;;;;;;;;;;;;;1904474;28;7005;-65
2022/04/26 09:08:26;;;;;;;;;;;;;;;;;;1905798;28;7005;-69
2022/04/26 09:09:24;;;;;;;;;;;;;;;;;;1904476;28;7025;-69
2022/04/26 09:10:21;;;;;;;;;;;;;;;;;;1905494;28;7096;-68
2022/04/26 09:11:20;;;;;;;;;;;;;;;;;;1905662;28;7315;-66
2022/04/26 09:12:18;;;;;;;;;;;;;;;;;;1905910;28;7006;-65
2022/04/26 09:13:17;;;;;;;;;;;;;;;;;;1897402;28;7124;-67
2022/04/26 09:14:29;;;;;;;;;;;;;;;;;;1897776;28;7014;-67
2022/04/26 09:15:35;;;;;;;;;;;;;;;;;;1905292;28;8147;-68
2022/04/26 09:16:32;;;;;;;;;;;;;;;;;;1905658;28;7214;-69
2022/04/26 09:17:30;;;;;;;;;;;;;;;;;;1906275;28;7109;-69
2022/04/26 09:18:30;;;;;;;;;;;;;;;;;;1905252;28;8023;-69
2022/04/26 09:19:42;;;;;;;;;;;;;;;;;;1905549;28;7058;-66
2022/04/26 09:20:39;;;;;;;;;;;;;;;;;;1905203;28;7046;-66
2022/04/26 09:21:53;;;;;;;;;;;;;;;;;;1905542;28;7109;-68
2022/04/26 09:22:57;;;;;;;;;;;;;;;;;;1905278;28;7042;-68
2022/04/26 09:23:57;;;;;;;;;;;;;;;;;;1905667;28;8016;-68
2022/04/26 09:24:57;;;;;;;;;;;;;;;;;;1905777;28;7017;-70
2022/04/26 09:25:55;;;;;;;;;;;;;;;;;;1905126;28;7010;-68
2022/04/26 09:26:53;;;;;;;;;;;;;;;;;;1905699;28;7009;-67
2022/04/26 09:27:57;;;;;;;;;;;;;;;;;;1906161;28;7014;-70
2022/04/26 09:28:58;;;;;;;;;;;;;;;;;;1905986;28;7093;-68
2022/04/26 09:29:56;;;;;;;;;;;;;;;;;;1905293;28;8103;-69
2022/04/26 09:30:54;;;;;;;;;;;;;;;;;;1902856;28;7006;-66
2022/04/26 09:31:59;;;;;;;;;;;;;;;;;;1903879;28;7113;-69
2022/04/26 09:32:58;;;;;;;;;;;;;;;;;;1904901;28;7010;-67
2022/04/26 09:34:04;;;;;;;;;;;;;;;;;;1904634;28;7038;-66
2022/04/26 09:35:16;;;;;;;;;;;;;;;;;;1905186;28;7084;-66
2022/04/26 09:36:15;;;;;;;;;;;;;;;;;;1905633;28;7010;-69
2022/04/26 09:37:12;;;;;;;;;;;;;;;;;;1904740;28;8043;-67
2022/04/26 09:38:12;;;;;;;;;;;;;;;;;;1905456;28;8036;-66
2022/04/26 09:39:09;;;;;;;;;;;;;;;;;;1905155;28;7101;-68
2022/04/26 09:40:08;;;;;;;;;;;;;;;;;;1906239;28;8114;-69
2022/04/26 09:41:09;;;;;;;;;;;;;;;;;;1904369;28;7010;-67
2022/04/26 09:42:07;;;;;;;;;;;;;;;;;;1905159;28;7010;-66
2022/04/26 09:43:13;;;;;;;;;;;;;;;;;;1905414;28;7005;-67
2022/04/26 09:44:10;;;;;;;;;;;;;;;;;;1905477;28;7037;-69
2022/04/26 09:45:09;;;;;;;;;;;;;;;;;;1905007;28;7085;-69
2022/04/26 09:46:08;;;;;;;;;;;;;;;;;;1905563;28;8072;-68
2022/04/26 09:47:05;;;;;;;;;;;;;;;;;;1904306;28;7021;-69
2022/04/26 09:48:04;;;;;;;;;;;;;;;;;;1905798;28;7006;-67
2022/04/26 09:49:05;;;;;;;;;;;;;;;;;;1906325;28;7009;-69
2022/04/26 09:50:20;;;;;;;;;;;;;;;;;;1897211;28;7009;-67
2022/04/26 09:51:17;;;;;;;;;;;;;;;;;;1899268;28;7005;-71
2022/04/26 09:52:18;;;;;;;;;;;;;;;;;;1905379;28;7205;-69
2022/04/26 09:53:15;;;;;;;;;;;;;;;;;;1905631;28;7005;-66
2022/04/26 09:54:13;;;;;;;;;;;;;;;;;;1904008;28;7129;-70
2022/04/26 09:55:13;;;;;;;;;;;;;;;;;;1905074;28;7013;-67
2022/04/26 09:56:13;;;;;;;;;;;;;;;;;;1904995;28;7156;-66
2022/04/26 09:57:20;;;;;;;;;;;;;;;;;;1905252;28;7006;-68
2022/04/26 09:58:37;;;;;;;;;;;;;;;;;;1904920;28;7006;-66
2022/04/26 09:59:38;;;;;;;;;;;;;;;;;;1904777;28;7002;-67
2022/04/26 10:00:39;;;;;;;;;;;;;;;;;;1904509;28;7104;-68
2022/04/26 10:01:45;;;;;;;;;;;;;;;;;;1905228;28;8048;-67
2022/04/26 10:02:45;;;;;;;;;;;;;;;;;;1905402;28;7097;-67
2022/04/26 10:03:46;;;;;;;;;;;;;;;;;;1905839;28;7088;-68
2022/04/26 10:04:52;;;;;;;;;;;;;;;;;;1905963;28;7089;-68
2022/04/26 10:05:55;;;;;;;;;;;;;;;;;;1905508;28;7005;-69
2022/04/26 10:06:57;;;;;;;;;;;;;;;;;;1905245;28;7006;-69
2022/04/26 10:07:56;;;;;;;;;;;;;;;;;;1912042;28;7013;-69
2022/04/26 10:08:55;;;;;;;;;;;;;;;;;;1912589;28;7089;-66
2022/04/26 10:09:54;;;;;;;;;;;;;;;;;;1905427;28;7014;-69
2022/04/26 10:10:52;;;;;;;;;;;;;;;;;;1897452;28;7005;-68
2022/04/26 10:11:50;;;;;;;;;;;;;;;;;;1897139;28;8526;-68
2022/04/26 10:14:06;;;;;;;;;;;;;;;;;;1904482;28;7120;-68
2022/04/26 10:15:05;;;;;;;;;;;;;;;;;;1905121;28;7006;-66
2022/04/26 10:16:05;;;;;;;;;;;;;;;;;;1903621;28;7014;-68
2022/04/26 10:17:03;;;;;;;;;;;;;;;;;;1905779;28;7042;-69
2022/04/26 10:18:00;;;;;;;;;;;;;;;;;;1905084;28;7006;-66
2022/04/26 10:19:03;;;;;;;;;;;;;;;;;;1904721;28;7360;-68
2022/04/26 10:20:01;;;;;;;;;;;;;;;;;;1904956;28;7124;-70
2022/04/26 10:21:00;;;;;;;;;;;;;;;;;;1904390;28;7010;-69
2022/04/26 10:21:58;;;;;;;;;;;;;;;;;;1904775;28;7005;-68
2022/04/26 10:22:58;;;;;;;;;;;;;;;;;;1905286;28;7025;-68
2022/04/26 10:24:01;;;;;;;;;;;;;;;;;;1905231;28;7113;-66
2022/04/26 10:25:12;;;;;;;;;;;;;;;;;;1896916;28;8046;-67
2022/04/26 10:26:25;;;;;;;;;;;;;;;;;;1897874;28;7006;-71
2022/04/26 10:27:23;;;;;;;;;;;;;;;;;;1905177;28;7089;-71
2022/04/26 10:28:23;;;;;;;;;;;;;;;;;;1905333;28;7105;-69
2022/04/26 10:29:23;;;;;;;;;;;;;;;;;;1905741;28;7005;-74
2022/04/26 10:30:40;;;;;;;;;;;;;;;;;;1905713;28;7096;-70
2022/04/26 10:31:41;;;;;;;;;;;;;;;;;;1904654;28;7220;-66
2022/04/26 10:32:38;;;;;;;;;;;;;;;;;;1905756;28;8025;-68
2022/04/26 10:33:36;;;;;;;;;;;;;;;;;;1905256;28;7381;-69
2022/04/26 10:34:34;;;;;;;;;;;;;;;;;;1904233;28;7050;-71
2022/04/26 10:35:32;;;;;;;;;;;;;;;;;;1904869;28;7269;-70
2022/04/26 10:36:30;;;;;;;;;;;;;;;;;;1904622;28;8899;-70
2022/04/26 10:37:31;;;;;;;;;;;;;;;;;;1904819;28;7092;-72
2022/04/26 10:38:28;;;;;;;;;;;;;;;;;;1903778;28;7010;-73
2022/04/26 10:39:27;;;;;;;;;;;;;;;;;;1905270;28;7092;-72
2022/04/26 10:40:26;;;;;;;;;;;;;;;;;;1905620;28;7010;-69
2022/04/26 10:41:33;;;;;;;;;;;;;;;;;;1904689;28;7125;-69
2022/04/26 10:42:35;;;;;;;;;;;;;;;;;;1904913;28;7053;-69
2022/04/26 10:43:33;;;;;;;;;;;;;;;;;;1896607;28;7027;-71
2022/04/26 10:44:32;;;;;;;;;;;;;;;;;;1896519;28;7002;-69
2022/04/26 10:45:29;;;;;;;;;;;;;;;;;;1903423;28;7018;-70
2022/04/26 10:46:27;;;;;;;;;;;;;;;;;;1904872;28;7005;-71
2022/04/26 10:47:26;;;;;;;;;;;;;;;;;;1905495;28;7353;-69
2022/04/26 10:48:24;;;;;;;;;;;;;;;;;;1904125;28;7043;-71
2022/04/26 10:49:24;;;;;;;;;;;;;;;;;;1906106;28;8034;-67
2022/04/26 10:50:32;;;;;;;;;;;;;;;;;;1905120;28;8099;-71
2022/04/26 10:51:32;;;;;;;;;;;;;;;;;;1897263;28;7148;-69
2022/04/26 10:52:34;;;;;;;;;;;;;;;;;;1897017;28;7002;-70
2022/04/26 10:53:45;;;;;;;;;;;;;;;;;;1904998;28;7076;-71
2022/04/26 10:54:46;;;;;;;;;;;;;;;;;;1904709;28;7017;-71
2022/04/26 10:55:43;;;;;;;;;;;;;;;;;;1904521;28;7014;-71
2022/04/26 10:56:40;;;;;;;;;;;;;;;;;;1904623;28;7088;-72
2022/04/26 10:57:43;;;;;;;;;;;;;;;;;;1904864;28;8096;-72
2022/04/26 10:58:50;;;;;;;;;;;;;;;;;;1904784;28;8104;-72
2022/04/26 10:59:56;;;;;;;;;;;;;;;;;;1905249;28;7085;-71
2022/04/26 11:00:54;;;;;;;;;;;;;;;;;;1904960;28;7113;-71
2022/04/26 11:01:51;;;;;;;;;;;;;;;;;;1904962;28;7042;-69
2022/04/26 11:02:53;;;;;;;;;;;;;;;;;;1905215;28;7009;-71
2022/04/26 11:03:52;;;;;;;;;;;;;;;;;;1904581;28;7089;-70
2022/04/26 11:04:55;;;;;;;;;;;;;;;;;;1904771;28;7013;-73
2022/04/26 11:05:54;;;;;;;;;;;;;;;;;;1904571;28;7009;-70
2022/04/26 11:06:51;;;;;;;;;;;;;;;;;;1905354;28;7025;-72
2022/04/26 11:07:49;;;;;;;;;;;;;;;;;;1905130;28;7014;-70
2022/04/26 11:09:04;;;;;;;;;;;;;;;;;;1904967;28;8067;-71
2022/04/26 11:10:04;;;;;;;;;;;;;;;;;;1905566;28;7329;-72
2022/04/26 11:11:10;;;;;;;;;;;;;;;;;;1904149;28;7025;-72
2022/04/26 11:12:08;;;;;;;;;;;;;;;;;;1905015;28;7101;-70
2022/04/26 11:13:05;;;;;;;;;;;;;;;;;;1904549;28;8034;-70
2022/04/26 11:14:03;;;;;;;;;;;;;;;;;;1905000;28;7078;-69
2022/04/26 11:15:11;;;;;;;;;;;;;;;;;;1905027;28;8035;-70
2022/04/26 11:16:12;;;;;;;;;;;;;;;;;;1905538;28;7034;-72
2022/04/26 11:17:10;;;;;;;;;;;;;;;;;;1904624;28;7372;-71
2022/04/26 11:18:07;;;;;;;;;;;;;;;;;;1904961;28;7030;-71
2022/04/26 11:19:05;;;;;;;;;;;;;;;;;;1904358;28;7042;-70
2022/04/26 11:20:09;;;;;;;;;;;;;;;;;;1904717;28;7312;-69
2022/04/26 11:21:07;;;;;;;;;;;;;;;;;;1904931;28;8031;-68
2022/04/26 11:22:09;;;;;;;;;;;;;;;;;;1905101;28;7010;-70
2022/04/26 11:28:00;;;;;;;;;;;;;;;;;;1904665;28;7010;-72
2022/04/26 11:28:13;;;;;;;;;;;;;;;;;;1904487;28;7009;-72
2022/04/26 11:29:25;;;;;;;;;;;;;;;;;;1904847;28;7009;-70
2022/04/26 11:30:24;;;;;;;;;;;;;;;;;;1905026;28;7328;-70
2022/04/26 11:31:22;;;;;;;;;;;;;;;;;;1905550;28;7025;-71
2022/04/26 11:32:29;;;;;;;;;;;;;;;;;;1905681;28;7077;-69
2022/04/26 11:33:28;;;;;;;;;;;;;;;;;;1903353;28;7104;-68
2022/04/26 11:34:46;;;;;;;;;;;;;;;;;;1904531;28;7013;-69
2022/04/26 11:35:44;;;;;;;;;;;;;;;;;;1904300;28;7101;-69
2022/04/26 11:36:41;;;;;;;;;;;;;;;;;;1905223;28;7176;-66
2022/04/26 11:37:42;;;;;;;;;;;;;;;;;;1904706;28;7005;-66
2022/04/26 11:38:40;;;;;;;;;;;;;;;;;;1904879;28;7142;-69
2022/04/26 11:39:41;;;;;;;;;;;;;;;;;;1904895;28;7308;-69
2022/04/26 11:40:41;;;;;;;;;;;;;;;;;;1904373;28;7149;-70
2022/04/26 11:41:39;;;;;;;;;;;;;;;;;;1902935;28;8063;-70
2022/04/26 11:42:42;;;;;;;;;;;;;;;;;;1904940;28;7096;-68
2022/04/26 11:43:40;;;;;;;;;;;;;;;;;;1904582;28;7005;-69
2022/04/26 11:44:54;;;;;;;;;;;;;;;;;;1903383;28;7006;-69
2022/04/26 11:45:53;;;;;;;;;;;;;;;;;;1903687;28;7113;-69
2022/04/26 11:46:59;;;;;;;;;;;;;;;;;;1904296;28;7005;-68
2022/04/26 11:47:57;;;;;;;;;;;;;;;;;;1903892;28;7034;-71
2022/04/26 11:48:59;;;;;;;;;;;;;;;;;;1904064;28;7093;-68
2022/04/26 11:50:06;;;;;;;;;;;;;;;;;;1904345;28;7046;-70
2022/04/26 11:51:04;;;;;;;;;;;;;;;;;;1896084;28;7371;-68
2022/04/26 11:52:01;;;;;;;;;;;;;;;;;;1895968;28;7006;-70
2022/04/26 11:53:01;;;;;;;;;;;;;;;;;;1903895;28;7065;-69
2022/04/26 11:53:58;;;;;;;;;;;;;;;;;;1904470;28;7149;-69
2022/04/26 11:54:55;;;;;;;;;;;;;;;;;;1904059;28;7145;-70
2022/04/26 11:55:54;;;;;;;;;;;;;;;;;;1904467;28;7060;-70
2022/04/26 11:56:52;;;;;;;;;;;;;;;;;;1903666;28;7096;-68
2022/04/26 11:57:50;;;;;;;;;;;;;;;;;;1904538;28;7021;-72
2022/04/26 11:58:48;;;;;;;;;;;;;;;;;;1903675;28;7006;-72
2022/04/26 11:59:46;;;;;;;;;;;;;;;;;;1904821;28;7096;-69
2022/04/26 12:00:51;;;;;;;;;;;;;;;;;;1904209;28;7042;-72
2022/04/26 12:01:55;;;;;;;;;;;;;;;;;;1904557;28;7021;-69
2022/04/26 12:02:53;;;;;;;;;;;;;;;;;;1904558;28;7001;-67
2022/04/26 12:03:53;;;;;;;;;;;;;;;;;;1904444;28;7038;-72
2022/04/26 12:04:51;;;;;;;;;;;;;;;;;;1905328;28;7013;-73
2022/04/26 12:05:53;;;;;;;;;;;;;;;;;;1905106;28;7093;-69
2022/04/26 12:06:54;;;;;;;;;;;;;;;;;;1905516;28;7318;-71
2022/04/26 12:07:52;;;;;;;;;;;;;;;;;;1904323;28;7415;-67
2022/04/26 12:08:53;;;;;;;;;;;;;;;;;;1904782;28;7104;-69
2022/04/26 12:09:52;;;;;;;;;;;;;;;;;;1904627;28;7376;-67
2022/04/26 12:10:49;;;;;;;;;;;;;;;;;;1904700;28;7117;-69
2022/04/26 12:11:58;;;;;;;;;;;;;;;;;;1904188;28;7336;-71
2022/04/26 12:13:02;;;;;;;;;;;;;;;;;;1903517;28;7143;-71
2022/04/26 12:14:05;;;;;;;;;;;;;;;;;;1903842;28;7096;-70
2022/04/26 12:15:04;;;;;;;;;;;;;;;;;;1905817;28;8047;-71
2022/04/26 12:16:20;;;;;;;;;;;;;;;;;;1905631;28;7013;-72
2022/04/26 12:17:18;;;;;;;;;;;;;;;;;;1903367;28;7026;-70
2022/04/26 12:18:21;;;;;;;;;;;;;;;;;;1904054;28;7010;-71
2022/04/26 12:19:18;;;;;;;;;;;;;;;;;;1903909;28;7097;-71
2022/04/26 12:20:18;;;;;;;;;;;;;;;;;;1903701;28;8031;-72
2022/04/26 12:21:16;;;;;;;;;;;;;;;;;;1903925;28;7164;-67
2022/04/26 12:22:13;;;;;;;;;;;;;;;;;;1904271;28;7009;-69
2022/04/26 12:23:20;;;;;;;;;;;;;;;;;;1896468;28;8142;-67
2022/04/26 12:24:17;;;;;;;;;;;;;;;;;;1896962;28;7017;-69
2022/04/26 12:25:15;;;;;;;;;;;;;;;;;;1903925;28;7009;-72
2022/04/26 12:26:13;;;;;;;;;;;;;;;;;;1904211;28;7013;-72
2022/04/26 12:27:17;;;;;;;;;;;;;;;;;;1904224;28;7972;-72
2022/04/26 12:28:14;;;;;;;;;;;;;;;;;;1904553;28;8064;-68
2022/04/26 12:29:13;;;;;;;;;;;;;;;;;;1903938;28;7005;-72
2022/04/26 12:30:11;;;;;;;;;;;;;;;;;;1904049;28;7038;-69
2022/04/26 12:31:19;;;;;;;;;;;;;;;;;;1904675;28;7109;-71
2022/04/26 12:32:18;;;;;;;;;;;;;;;;;;1904572;28;7010;-70
2022/04/26 12:33:30;;;;;;;;;;;;;;;;;;1904850;28;7001;-73
2022/04/26 12:34:31;;;;;;;;;;;;;;;;;;1904464;28;7113;-70
2022/04/26 12:35:28;;;;;;;;;;;;;;;;;;1904842;28;7005;-68
2022/04/26 12:36:26;;;;;;;;;;;;;;;;;;1904227;28;8068;-70
2022/04/26 12:37:26;;;;;;;;;;;;;;;;;;1905104;28;8023;-70
2022/04/26 12:38:24;;;;;;;;;;;;;;;;;;1905322;28;7030;-73
2022/04/26 12:39:22;;;;;;;;;;;;;;;;;;1904707;28;7152;-72
2022/04/26 12:40:19;;;;;;;;;;;;;;;;;;1905484;28;7014;-69
2022/04/26 12:41:17;;;;;;;;;;;;;;;;;;1904768;28;7128;-72
2022/04/26 12:42:16;;;;;;;;;;;;;;;;;;1906019;28;7018;-70
2022/04/26 12:43:27;;;;;;;;;;;;;;;;;;1904721;28;7033;-70
2022/04/26 12:44:25;;;;;;;;;;;;;;;;;;1905246;28;7096;-70
2022/04/26 12:45:23;;;;;;;;;;;;;;;;;;1905450;28;7013;-70
2022/04/26 12:46:25;;;;;;;;;;;;;;;;;;1905389;28;7042;-70
2022/04/26 12:50:28;;;;;;;;;;;;;;;;;;1905539;28;7038;-71
2022/04/26 12:51:27;;;;;;;;;;;;;;;;;;1905723;28;7017;-72
2022/04/26 12:52:29;;;;;;;;;;;;;;;;;;1905650;28;7213;-71
2022/04/26 12:53:32;;;;;;;;;;;;;;;;;;1905782;28;7026;-70
2022/04/26 12:54:29;;;;;;;;;;;;;;;;;;1905678;28;7005;-69
2022/04/26 12:55:30;;;;;;;;;;;;;;;;;;1905878;28;7340;-68
2022/04/26 12:56:28;;;;;;;;;;;;;;;;;;1905423;28;7042;-68
2022/04/26 12:57:25;;;;;;;;;;;;;;;;;;1904288;28;7021;-68
2022/04/26 12:58:39;;;;;;;;;;;;;;;;;;1896983;28;7002;-68
2022/04/26 12:59:38;;;;;;;;;;;;;;;;;;1899076;28;7105;-71
2022/04/26 13:00:39;;;;;;;;;;;;;;;;;;1905366;28;7005;-69
2022/04/26 13:01:37;;;;;;;;;;;;;;;;;;1901059;28;7001;-71
2022/04/26 13:02:34;;;;;;;;;;;;;;;;;;1904609;28;7112;-70
2022/04/26 13:03:33;;;;;;;;;;;;;;;;;;1905114;28;7339;-69
2022/04/26 13:04:31;;;;;;;;;;;;;;;;;;1905578;28;7065;-69
2022/04/26 13:05:37;;;;;;;;;;;;;;;;;;1905990;28;7348;-68
2022/04/26 13:06:34;;;;;;;;;;;;;;;;;;1905439;28;8289;-68
2022/04/26 13:07:52;;;;;;;;;;;;;;;;;;1904733;28;7088;-68
2022/04/26 13:08:51;;;;;;;;;;;;;;;;;;1896997;28;7256;-71
2022/04/26 13:09:48;;;;;;;;;;;;;;;;;;1895739;28;7038;-71
2022/04/26 13:10:47;;;;;;;;;;;;;;;;;;1903933;28;7100;-68
2022/04/26 13:11:45;;;;;;;;;;;;;;;;;;1912181;28;8011;-70
2022/04/26 13:12:43;;;;;;;;;;;;;;;;;;1912048;28;8475;-71
2022/04/26 13:13:41;;;;;;;;;;;;;;;;;;1905934;28;7029;-69
2022/04/26 13:14:38;;;;;;;;;;;;;;;;;;1905252;28;7129;-68
2022/04/26 13:15:43;;;;;;;;;;;;;;;;;;1905750;28;7121;-71
2022/04/26 13:16:41;;;;;;;;;;;;;;;;;;1911860;28;7213;-69
2022/04/26 13:17:38;;;;;;;;;;;;;;;;;;1911763;28;7005;-68
2022/04/26 13:18:36;;;;;;;;;;;;;;;;;;1906086;28;7009;-68
2022/04/26 13:19:33;;;;;;;;;;;;;;;;;;1904928;28;7320;-68
2022/04/26 13:20:32;;;;;;;;;;;;;;;;;;1897267;28;7050;-70
2022/04/26 13:21:30;;;;;;;;;;;;;;;;;;1889363;28;8183;-69
2022/04/26 13:22:28;;;;;;;;;;;;;;;;;;1896686;28;7018;-69
2022/04/26 13:23:26;;;;;;;;;;;;;;;;;;1905040;28;7013;-69
2022/04/26 13:24:28;;;;;;;;;;;;;;;;;;1905302;28;7093;-69
2022/04/26 13:25:31;;;;;;;;;;;;;;;;;;1897355;28;7109;-70
2022/04/26 13:26:40;;;;;;;;;;;;;;;;;;1896882;28;7120;-70
2022/04/26 13:27:38;;;;;;;;;;;;;;;;;;1905459;28;7046;-70
2022/04/26 13:28:36;;;;;;;;;;;;;;;;;;1905271;28;7054;-68
2022/04/26 13:29:33;;;;;;;;;;;;;;;;;;1905190;28;7153;-72
2022/04/26 13:30:31;;;;;;;;;;;;;;;;;;1904998;28;7021;-70
2022/04/26 13:31:28;;;;;;;;;;;;;;;;;;1905414;28;7124;-71
2022/04/26 13:32:30;;;;;;;;;;;;;;;;;;1905411;28;8091;-69
2022/04/26 13:33:27;;;;;;;;;;;;;;;;;;1896736;28;7162;-70
2022/04/26 13:34:25;;;;;;;;;;;;;;;;;;1897475;28;7387;-70
2022/04/26 13:35:33;;;;;;;;;;;;;;;;;;1905590;28;7010;-70
2022/04/26 13:36:30;;;;;;;;;;;;;;;;;;1904998;28;7042;-69
2022/04/26 13:37:28;;;;;;;;;;;;;;;;;;1905341;28;7042;-72
2022/04/26 13:38:26;;;;;;;;;;;;;;;;;;1904885;28;7192;-71
2022/04/26 13:39:23;;;;;;;;;;;;;;;;;;1905823;28;7317;-71
2022/04/26 13:40:21;;;;;;;;;;;;;;;;;;1896559;28;7101;-70
2022/04/26 13:41:27;;;;;;;;;;;;;;;;;;1897602;28;7010;-71
2022/04/26 13:42:25;;;;;;;;;;;;;;;;;;1906045;28;8009;-71
2022/04/26 13:43:24;;;;;;;;;;;;;;;;;;1906074;28;7005;-72
2022/04/26 13:44:41;;;;;;;;;;;;;;;;;;1906516;28;8079;-69
2022/04/26 13:45:39;;;;;;;;;;;;;;;;;;1905040;28;7009;-70
2022/04/26 13:46:40;;;;;;;;;;;;;;;;;;1904484;28;7009;-69
2022/04/26 13:47:39;;;;;;;;;;;;;;;;;;1905561;28;7010;-69
2022/04/26 13:48:37;;;;;;;;;;;;;;;;;;1904989;28;7010;-70
2022/04/26 13:49:35;;;;;;;;;;;;;;;;;;1896623;28;7339;-68
2022/04/26 13:50:33;;;;;;;;;;;;;;;;;;1897472;28;7142;-69
2022/04/26 13:51:30;;;;;;;;;;;;;;;;;;1902948;28;8115;-70
2022/04/26 13:52:28;;;;;;;;;;;;;;;;;;1906215;28;7029;-68
2022/04/26 13:53:27;;;;;;;;;;;;;;;;;;1905691;28;8196;-72
2022/04/26 13:54:27;;;;;;;;;;;;;;;;;;1905205;28;7033;-70
2022/04/26 13:55:26;;;;;;;;;;;;;;;;;;1905157;28;7018;-69
2022/04/26 13:56:24;;;;;;;;;;;;;;;;;;1904941;28;7001;-70
2022/04/26 13:57:22;;;;;;;;;;;;;;;;;;1904830;28;7042;-71
2022/04/26 13:58:19;;;;;;;;;;;;;;;;;;1904816;28;7042;-70
2022/04/26 13:59:16;;;;;;;;;;;;;;;;;;1905371;28;7266;-69
2022/04/26 14:00:18;;;;;;;;;;;;;;;;;;1907159;28;7005;-70
2022/04/26 14:01:15;;;;;;;;;;;;;;;;;;1904917;28;7124;-68
2022/04/26 14:02:13;;;;;;;;;;;;;;;;;;1905186;28;7112;-69
2022/04/26 14:03:11;;;;;;;;;;;;;;;;;;1905038;28;7117;-71
2022/04/26 14:04:08;;;;;;;;;;;;;;;;;;1904506;28;7343;-69
2022/04/26 14:05:06;;;;;;;;;;;;;;;;;;1904769;28;7683;-70
2022/04/26 14:06:04;;;;;;;;;;;;;;;;;;1905443;28;7358;-68
2022/04/26 14:07:01;;;;;;;;;;;;;;;;;;1907631;28;8059;-68
2022/04/26 14:07:59;;;;;;;;;;;;;;;;;;1905749;28;7105;-70
2022/04/26 14:08:56;;;;;;;;;;;;;;;;;;1904297;28;7402;-69
2022/04/26 14:09:54;;;;;;;;;;;;;;;;;;1904777;28;7054;-70
2022/04/26 14:10:51;;;;;;;;;;;;;;;;;;1904927;28;7092;-69
2022/04/26 14:11:55;;;;;;;;;;;;;;;;;;1896880;28;7148;-67
2022/04/26 14:12:53;;;;;;;;;;;;;;;;;;1896983;28;7006;-68
2022/04/26 14:22:09;;;;;;;;;;;;;;;;;;1866999;29;7010;-70